createdAt,value
2023-08-15T00:01:37.892Z,25.10
2023-08-15T00:04:40.725Z,25.10
2023-08-15T00:07:43.556Z,25.10
2023-08-15T00:10:48.351Z,25.10
2023-08-15T00:13:51.296Z,25.00
2023-08-15T00:16:54.214Z,24.90
2023-08-15T00:19:57.037Z,24.90
2023-08-15T00:22:59.883Z,24.90
2023-08-15T00:26:04.024Z,24.90
2023-08-15T00:29:06.818Z,24.90
2023-08-15T00:32:09.660Z,24.90
2023-08-15T00:35:13.198Z,24.90
2023-08-15T00:38:16.034Z,24.90
2023-08-15T00:41:20.418Z,24.90
2023-08-15T00:44:23.226Z,24.80
2023-08-15T00:47:26.914Z,24.70
2023-08-15T00:50:30.220Z,24.60
2023-08-15T00:53:36.044Z,24.60
2023-08-15T00:56:40.452Z,24.60
2023-08-15T00:59:44.694Z,24.70
2023-08-15T01:02:47.961Z,24.70
2023-08-15T01:05:51.708Z,24.70
2023-08-15T01:08:54.677Z,24.70
2023-08-15T01:12:07.806Z,24.60
2023-08-15T01:15:17.815Z,24.60
2023-08-15T01:18:26.642Z,24.50
2023-08-15T01:21:44.316Z,24.50
2023-08-15T01:24:49.541Z,24.40
2023-08-15T01:27:52.328Z,24.40
2023-08-15T01:30:58.570Z,24.30
2023-08-15T01:34:08.989Z,24.30
2023-08-15T01:37:19.997Z,24.30
2023-08-15T01:40:25.499Z,24.30
2023-08-15T01:43:29.679Z,24.30
2023-08-15T01:46:34.495Z,24.30
2023-08-15T01:49:37.295Z,24.20
2023-08-15T01:52:40.153Z,24.20
2023-08-15T01:55:44.296Z,24.10
2023-08-15T01:58:47.149Z,24.10
2023-08-15T02:01:49.946Z,24.10
2023-08-15T02:04:52.769Z,24.00
2023-08-15T02:07:55.631Z,24.00
2023-08-15T02:10:59.824Z,24.00
2023-08-15T02:14:02.650Z,24.00
2023-08-15T02:17:05.497Z,23.90
2023-08-15T02:20:09.297Z,23.90
2023-08-15T02:23:12.626Z,23.80
2023-08-15T02:26:16.948Z,23.80
2023-08-15T02:29:19.807Z,23.70
2023-08-15T02:32:22.801Z,23.80
2023-08-15T02:35:25.676Z,23.80
2023-08-15T02:38:28.517Z,23.80
2023-08-15T02:41:32.809Z,23.80
2023-08-15T02:44:35.624Z,23.60
2023-08-15T02:47:38.457Z,23.50
2023-08-15T02:50:41.299Z,23.50
2023-08-15T02:53:44.098Z,23.40
2023-08-15T02:56:48.252Z,23.50
2023-08-15T02:59:51.175Z,23.50
2023-08-15T03:02:54.658Z,23.50
2023-08-15T03:06:01.473Z,23.50
2023-08-15T03:09:04.891Z,23.50
2023-08-15T03:12:09.633Z,23.50
2023-08-15T03:15:12.514Z,23.40
2023-08-15T03:18:15.309Z,23.30
2023-08-15T03:21:18.155Z,23.30
2023-08-15T03:24:20.994Z,23.30
2023-08-15T03:27:25.140Z,23.30
2023-08-15T03:30:28.081Z,23.30
2023-08-15T03:33:30.974Z,23.30
2023-08-15T03:36:33.775Z,23.30
2023-08-15T03:39:36.578Z,23.30
2023-08-15T03:42:40.719Z,23.30
2023-08-15T03:45:43.590Z,23.30
2023-08-15T03:48:46.449Z,23.20
2023-08-15T03:51:49.284Z,23.20
2023-08-15T03:54:52.096Z,23.10
2023-08-15T03:57:56.411Z,23.10
2023-08-15T04:00:59.562Z,23.10
2023-08-15T04:04:02.488Z,23.10
2023-08-15T04:07:05.441Z,23.10
2023-08-15T04:10:09.430Z,23.00
2023-08-15T04:13:14.598Z,23.00
2023-08-15T04:16:17.457Z,23.00
2023-08-15T04:19:20.246Z,23.00
2023-08-15T04:22:23.088Z,23.00
2023-08-15T04:25:28.329Z,23.00
2023-08-15T04:28:33.677Z,23.00
2023-08-15T04:31:36.482Z,23.00
2023-08-15T04:34:39.292Z,23.00
2023-08-15T04:37:42.238Z,23.00
2023-08-15T04:40:45.271Z,23.00
2023-08-15T04:43:49.564Z,23.10
2023-08-15T04:46:52.337Z,23.00
2023-08-15T04:49:55.134Z,23.00
2023-08-15T04:52:57.938Z,23.00
2023-08-15T04:56:00.827Z,23.00
2023-08-15T04:59:05.110Z,23.00
2023-08-15T05:02:08.027Z,23.00
2023-08-15T05:05:11.757Z,23.00
2023-08-15T05:08:14.606Z,23.00
2023-08-15T05:11:17.428Z,23.00
2023-08-15T05:14:21.570Z,23.10
2023-08-15T05:17:24.470Z,23.10
2023-08-15T05:20:27.466Z,23.10
2023-08-15T05:23:30.316Z,23.10
2023-08-15T05:26:33.472Z,23.10
2023-08-15T05:29:37.600Z,23.20
2023-08-15T05:32:40.477Z,23.20
2023-08-15T05:35:44.338Z,23.30
2023-08-15T05:38:47.131Z,23.30
2023-08-15T05:41:49.926Z,23.40
2023-08-15T05:44:54.156Z,23.40
2023-08-15T05:47:57.399Z,23.50
2023-08-15T05:51:00.923Z,23.50
2023-08-15T05:54:04.305Z,23.60
2023-08-15T05:57:07.336Z,23.70
2023-08-15T06:00:14.481Z,23.70
2023-08-15T06:03:22.385Z,23.80
2023-08-15T06:06:34.202Z,23.90
2023-08-15T06:09:37.075Z,24.00
2023-08-15T06:12:39.880Z,24.10
2023-08-15T06:15:44.049Z,24.20
2023-08-15T06:18:46.958Z,24.20
2023-08-15T06:21:49.765Z,24.30
2023-08-15T06:24:52.862Z,24.30
2023-08-15T06:27:55.683Z,24.40
2023-08-15T06:30:59.870Z,24.50
2023-08-15T06:34:04.468Z,24.50
2023-08-15T06:37:07.256Z,24.60
2023-08-15T06:40:12.626Z,24.70
2023-08-15T06:43:15.502Z,24.80
2023-08-15T06:46:19.864Z,24.90
2023-08-15T06:49:22.714Z,24.90
2023-08-15T06:52:25.551Z,24.90
2023-08-15T06:55:28.407Z,25.00
2023-08-15T06:58:31.239Z,25.00
2023-08-15T07:01:35.503Z,25.10
2023-08-15T07:04:41.378Z,25.10
2023-08-15T07:07:44.206Z,25.20
2023-08-15T07:10:47.037Z,25.30
2023-08-15T07:13:49.822Z,25.30
2023-08-15T07:16:54.030Z,25.40
2023-08-15T07:19:57.133Z,25.50
2023-08-15T07:23:00.071Z,25.60
2023-08-15T07:26:03.921Z,25.70
2023-08-15T07:29:06.737Z,25.80
2023-08-15T07:32:13.386Z,25.90
2023-08-15T07:35:16.773Z,25.90
2023-08-15T07:38:19.590Z,26.00
2023-08-15T07:41:22.426Z,26.10
2023-08-15T07:44:26.872Z,26.20
2023-08-15T07:47:35.167Z,26.30
2023-08-15T07:50:38.022Z,26.30
2023-08-15T07:53:40.965Z,26.40
2023-08-15T07:56:43.779Z,26.50
2023-08-15T07:59:48.882Z,26.60
2023-08-15T08:02:53.374Z,26.60
2023-08-15T08:05:56.294Z,26.70
2023-08-15T08:09:00.148Z,26.90
2023-08-15T08:12:04.170Z,26.90
2023-08-15T08:15:08.390Z,26.90
2023-08-15T08:18:12.625Z,27.00
2023-08-15T08:21:15.565Z,27.00
2023-08-15T08:24:18.377Z,27.10
2023-08-15T08:27:21.984Z,27.20
2023-08-15T08:30:26.725Z,27.20
2023-08-15T08:33:32.310Z,27.20
2023-08-15T08:36:35.113Z,27.20
2023-08-15T08:39:37.918Z,27.30
2023-08-15T08:42:41.764Z,27.30
2023-08-15T08:45:50.585Z,27.40
2023-08-15T08:48:54.909Z,27.50
2023-08-15T08:51:58.618Z,27.60
2023-08-15T08:55:01.618Z,27.70
2023-08-15T08:58:06.032Z,27.80
2023-08-15T09:01:09.339Z,27.90
2023-08-15T09:04:13.709Z,28.00
2023-08-15T09:07:17.724Z,28.10
2023-08-15T09:10:24.096Z,28.20
2023-08-15T09:13:27.096Z,28.20
2023-08-15T09:16:30.054Z,28.30
2023-08-15T09:19:41.343Z,28.40
2023-08-15T09:22:46.755Z,28.50
2023-08-15T09:25:54.762Z,28.60
2023-08-15T09:28:58.904Z,28.70
2023-08-15T09:32:02.442Z,28.70
2023-08-15T09:35:07.616Z,28.80
2023-08-15T09:38:11.635Z,28.90
2023-08-15T09:41:14.544Z,28.90
2023-08-15T09:44:31.460Z,29.00
2023-08-15T09:47:34.865Z,29.10
2023-08-15T09:50:42.591Z,29.20
2023-08-15T09:53:46.417Z,29.30
2023-08-15T09:56:49.414Z,29.40
2023-08-15T09:59:52.374Z,29.50
2023-08-15T10:03:01.606Z,29.60
2023-08-15T10:06:09.059Z,29.70
2023-08-15T10:09:15.760Z,29.80
2023-08-15T10:12:20.110Z,29.90
2023-08-15T10:15:24.228Z,30.00
2023-08-15T10:18:27.729Z,30.00
2023-08-15T10:21:48.217Z,30.20
2023-08-15T10:24:51.356Z,30.30
2023-08-15T10:27:55.545Z,30.40
2023-08-15T10:30:59.143Z,30.40
2023-08-15T10:34:04.084Z,30.50
2023-08-15T10:37:30.492Z,30.50
2023-08-15T10:40:40.838Z,30.60
2023-08-15T10:43:49.238Z,30.70
2023-08-15T10:46:52.151Z,30.80
2023-08-15T10:49:55.289Z,30.80
2023-08-15T10:53:03.430Z,30.90
2023-08-15T10:56:06.747Z,31.00
2023-08-15T10:59:12.768Z,31.20
2023-08-15T11:02:15.676Z,31.20
2023-08-15T11:05:20.316Z,31.30
2023-08-15T11:08:24.511Z,31.30
2023-08-15T11:11:27.927Z,31.40
2023-08-15T11:14:30.779Z,31.50
2023-08-15T11:17:33.619Z,31.50
2023-08-15T11:20:36.531Z,31.50
2023-08-15T11:23:41.586Z,31.50
2023-08-15T11:26:44.406Z,31.50
2023-08-15T11:29:58.099Z,31.70
2023-08-15T11:33:01.602Z,31.80
2023-08-15T11:36:07.047Z,31.90
2023-08-15T11:39:15.012Z,32.00
2023-08-15T11:42:17.969Z,32.20
2023-08-15T11:45:23.917Z,32.20
2023-08-15T11:48:26.738Z,32.40
2023-08-15T11:51:29.777Z,32.50
2023-08-15T11:54:33.928Z,32.70
2023-08-15T11:57:37.215Z,32.80
2023-08-15T12:00:40.024Z,32.90
2023-08-15T12:03:42.922Z,33.00
2023-08-15T12:06:45.922Z,33.10
2023-08-15T12:09:50.179Z,33.20
2023-08-15T12:12:53.933Z,33.30
2023-08-15T12:15:56.819Z,33.40
2023-08-15T12:18:59.740Z,33.40
2023-08-15T12:22:02.593Z,33.40
2023-08-15T12:25:08.874Z,33.50
2023-08-15T12:28:11.802Z,33.60
2023-08-15T12:31:14.876Z,33.60
2023-08-15T12:34:17.724Z,33.70
2023-08-15T12:37:20.590Z,33.70
2023-08-15T12:40:31.087Z,33.80
2023-08-15T12:43:34.507Z,33.90
2023-08-15T12:46:37.381Z,34.00
2023-08-15T12:49:40.675Z,34.10
2023-08-15T12:52:43.530Z,34.20
2023-08-15T12:55:47.737Z,34.30
2023-08-15T12:58:50.615Z,34.40
2023-08-15T13:01:54.063Z,34.50
2023-08-15T13:04:57.175Z,34.60
2023-08-15T13:08:00.037Z,34.70
2023-08-15T13:11:05.786Z,34.70
2023-08-15T13:14:08.641Z,34.50
2023-08-15T13:17:11.609Z,34.20
2023-08-15T13:20:15.801Z,34.00
2023-08-15T13:23:18.712Z,33.80
2023-08-15T13:26:23.249Z,33.80
2023-08-15T13:29:26.380Z,34.00
2023-08-15T13:32:29.234Z,34.20
2023-08-15T13:35:32.492Z,34.10
2023-08-15T13:38:35.797Z,34.00
2023-08-15T13:41:40.024Z,33.80
2023-08-15T13:44:43.048Z,33.60
2023-08-15T13:47:45.867Z,33.40
2023-08-15T13:50:48.848Z,33.20
2023-08-15T13:53:51.818Z,33.10
2023-08-15T13:56:56.157Z,32.80
2023-08-15T13:59:59.273Z,32.50
2023-08-15T14:03:02.173Z,32.30
2023-08-15T14:06:05.883Z,32.20
2023-08-15T14:09:08.715Z,32.00
2023-08-15T14:12:12.944Z,31.90
2023-08-15T14:15:15.822Z,31.80
2023-08-15T14:18:18.685Z,31.70
2023-08-15T14:21:21.496Z,31.60
2023-08-15T14:24:24.555Z,31.50
2023-08-15T14:27:28.715Z,31.40
2023-08-15T14:30:32.211Z,31.30
2023-08-15T14:33:35.072Z,31.20
2023-08-15T14:36:37.913Z,31.10
2023-08-15T14:39:40.738Z,30.90
2023-08-15T14:42:44.891Z,30.90
2023-08-15T14:45:47.745Z,30.90
2023-08-15T14:48:50.602Z,30.80
2023-08-15T14:51:54.543Z,30.70
2023-08-15T14:54:57.945Z,30.60
2023-08-15T14:58:02.481Z,30.50
2023-08-15T15:01:06.942Z,30.30
2023-08-15T15:04:09.754Z,30.20
2023-08-15T15:07:12.596Z,30.10
2023-08-15T15:10:15.514Z,29.90
2023-08-15T15:13:19.813Z,29.90
2023-08-15T15:16:22.771Z,29.80
2023-08-15T15:19:25.948Z,29.80
2023-08-15T15:22:28.790Z,29.60
2023-08-15T15:25:31.642Z,29.60
2023-08-15T15:28:35.801Z,29.40
2023-08-15T15:31:38.605Z,29.30
2023-08-15T15:34:41.457Z,29.20
2023-08-15T15:37:44.623Z,29.10
2023-08-15T15:40:47.418Z,28.90
2023-08-15T15:43:51.710Z,28.70
2023-08-15T15:46:55.788Z,28.60
2023-08-15T15:49:59.194Z,28.50
2023-08-15T15:53:02.577Z,28.50
2023-08-15T15:56:05.957Z,28.40
2023-08-15T15:59:10.294Z,28.30
2023-08-15T16:02:13.118Z,28.30
2023-08-15T16:05:17.062Z,28.30
2023-08-15T16:08:20.034Z,28.20
2023-08-15T16:11:22.907Z,28.10
2023-08-15T16:14:27.050Z,28.00
2023-08-15T16:17:30.138Z,28.00
2023-08-15T16:20:33.014Z,27.90
2023-08-15T16:23:35.879Z,27.90
2023-08-15T16:26:38.704Z,27.80
2023-08-15T16:29:42.838Z,27.70
2023-08-15T16:32:46.411Z,27.60
2023-08-15T16:35:49.329Z,27.50
2023-08-15T16:38:52.369Z,27.40
2023-08-15T16:41:55.214Z,27.30
2023-08-15T16:44:59.426Z,27.30
2023-08-15T16:48:02.253Z,27.30
2023-08-15T16:51:05.261Z,27.20
2023-08-15T16:54:08.159Z,27.20
2023-08-15T16:57:10.985Z,27.20
2023-08-15T17:00:16.340Z,27.10
2023-08-15T17:03:19.364Z,27.10
2023-08-15T17:06:22.307Z,27.10
2023-08-15T17:09:25.867Z,27.10
2023-08-15T17:12:28.724Z,27.10
2023-08-15T17:15:33.692Z,27.10
2023-08-15T17:18:36.539Z,27.10
2023-08-15T17:21:39.385Z,27.00
2023-08-15T17:24:43.295Z,27.00
2023-08-15T17:27:46.146Z,27.00
2023-08-15T17:30:50.381Z,26.90
2023-08-15T17:33:53.255Z,26.80
2023-08-15T17:36:56.114Z,26.80
2023-08-15T17:39:59.025Z,26.70
2023-08-15T17:43:01.859Z,26.70
2023-08-15T17:46:06.202Z,26.70
2023-08-15T17:49:09.028Z,26.80
2023-08-15T17:52:11.841Z,26.70
2023-08-15T17:55:14.641Z,26.70
2023-08-15T17:58:17.445Z,26.60
2023-08-15T18:01:22.282Z,26.60
2023-08-15T18:04:25.138Z,26.50
2023-08-15T18:07:28.032Z,26.50
2023-08-15T18:10:30.922Z,26.50
2023-08-15T18:13:34.164Z,26.50
2023-08-15T18:16:39.527Z,26.50
2023-08-15T18:19:43.904Z,26.50
2023-08-15T18:22:46.755Z,26.50
2023-08-15T18:25:49.681Z,26.40
2023-08-15T18:28:52.500Z,26.40
2023-08-15T18:31:57.010Z,26.40
2023-08-15T18:34:59.867Z,26.40
2023-08-15T18:38:02.727Z,26.40
2023-08-15T18:41:05.592Z,26.40
2023-08-15T18:44:09.038Z,26.30
2023-08-15T18:47:13.253Z,26.30
2023-08-15T18:50:18.660Z,26.30
2023-08-15T18:53:21.509Z,26.10
2023-08-15T18:56:24.408Z,26.00
2023-08-15T18:59:27.347Z,25.90
2023-08-15T19:02:31.597Z,25.80
2023-08-15T19:05:34.583Z,25.70
2023-08-15T19:08:37.648Z,25.70
2023-08-15T19:11:40.451Z,25.60
2023-08-15T19:14:43.280Z,25.60
2023-08-15T19:17:49.679Z,25.50
2023-08-15T19:20:52.937Z,25.50
2023-08-15T19:23:55.747Z,25.50
2023-08-15T19:26:58.567Z,25.40
2023-08-15T19:30:01.760Z,25.30
2023-08-15T19:33:06.337Z,25.30
2023-08-15T19:36:09.288Z,25.30
2023-08-15T19:39:12.289Z,25.30
2023-08-15T19:42:15.570Z,25.40
2023-08-15T19:45:18.678Z,25.40
2023-08-15T19:48:23.046Z,25.40
2023-08-15T19:51:26.436Z,25.20
2023-08-15T19:54:29.329Z,25.30
2023-08-15T19:57:32.947Z,25.30
2023-08-15T20:00:35.814Z,25.20
2023-08-15T20:03:40.792Z,25.20
2023-08-15T20:06:43.837Z,25.20
2023-08-15T20:09:59.263Z,25.10
2023-08-15T20:13:08.131Z,25.10
2023-08-15T20:16:11.219Z,25.10
2023-08-15T20:19:15.478Z,25.00
2023-08-15T20:22:18.495Z,24.90
2023-08-15T20:25:21.492Z,24.90
2023-08-15T20:28:24.524Z,24.90
2023-08-15T20:31:28.039Z,24.90
2023-08-15T20:34:32.316Z,24.80
2023-08-15T20:37:36.921Z,24.70
2023-08-15T20:40:39.736Z,24.70
2023-08-15T20:43:42.829Z,24.60
2023-08-15T20:46:46.256Z,24.60
2023-08-15T20:49:50.513Z,24.50
2023-08-15T20:52:54.793Z,24.60
2023-08-15T20:55:57.772Z,24.60
2023-08-15T20:59:00.737Z,24.50
2023-08-15T21:02:04.656Z,24.50
2023-08-15T21:05:10.912Z,24.40
2023-08-15T21:08:14.227Z,24.30
2023-08-15T21:11:17.149Z,24.40
2023-08-15T21:14:20.057Z,24.50
2023-08-15T21:17:25.943Z,24.50
2023-08-15T21:20:30.398Z,24.40
2023-08-15T21:23:33.850Z,24.50
2023-08-15T21:26:37.986Z,24.40
2023-08-15T21:29:42.186Z,24.40
2023-08-15T21:32:45.048Z,24.40
2023-08-15T21:35:49.555Z,24.50
2023-08-15T21:38:52.363Z,24.40
2023-08-15T21:41:55.160Z,24.40
2023-08-15T21:44:57.939Z,24.30
2023-08-15T21:48:00.764Z,24.40
2023-08-15T21:51:05.041Z,24.40
2023-08-15T21:54:08.001Z,24.40
2023-08-15T21:57:10.810Z,24.30
2023-08-15T22:00:14.841Z,24.30
2023-08-15T22:03:17.748Z,24.30
2023-08-15T22:06:22.056Z,24.30
2023-08-15T22:09:25.374Z,24.30
2023-08-15T22:12:28.473Z,24.20
2023-08-15T22:15:31.321Z,24.10
2023-08-15T22:18:34.243Z,24.20
2023-08-15T22:21:38.738Z,24.20
2023-08-15T22:24:46.340Z,24.20
2023-08-15T22:27:53.780Z,24.20
2023-08-15T22:30:56.593Z,24.20
2023-08-15T22:33:59.558Z,24.10
2023-08-15T22:37:03.705Z,24.10
2023-08-15T22:40:08.406Z,24.10
2023-08-15T22:43:11.287Z,24.10
2023-08-15T22:46:14.241Z,24.10
2023-08-15T22:49:17.044Z,24.10
2023-08-15T22:52:21.227Z,24.10
2023-08-15T22:55:24.083Z,24.10
2023-08-15T22:58:26.898Z,24.00
2023-08-15T23:01:29.776Z,23.90
2023-08-15T23:04:32.627Z,23.90
2023-08-15T23:07:36.863Z,23.90
2023-08-15T23:10:39.698Z,23.90
2023-08-15T23:13:42.529Z,23.80
2023-08-15T23:16:45.348Z,23.80
2023-08-15T23:19:48.341Z,23.80
2023-08-15T23:22:52.491Z,23.80
2023-08-15T23:25:55.390Z,23.60
2023-08-15T23:28:58.209Z,23.50
2023-08-15T23:32:03.649Z,23.50
2023-08-15T23:35:07.786Z,23.50
2023-08-15T23:38:11.954Z,23.60
2023-08-15T23:41:14.789Z,23.60
2023-08-15T23:44:19.659Z,23.60
2023-08-15T23:47:23.047Z,23.60
2023-08-15T23:50:26.155Z,23.50
2023-08-15T23:53:30.362Z,23.50
2023-08-15T23:56:33.456Z,23.50
2023-08-15T23:59:36.393Z,23.50
